Impacts METAR Board
IDs:

KSLC - Salt Lake City Intl, UT, US

Updated at: 0500 UTC 22 Oct 2018
Potential Impact None Slight Moderate High
Time 21/17Z 21/18Z 21/19Z 21/20Z 21/21Z 21/22Z 21/23Z 22/00Z 22/01Z 22/02Z 22/03Z 22/04Z 22/05Z
Temp62 66 67 70 70 71 66 65 63 61 59 57 55
Dewpt38 38 39 39 38 40 41 40 41 42 42 43 42
Altim30.17 30.14 30.13 30.10 30.08 30.08 30.09 30.08 30.07 30.08 30.07 30.08 30.09
VIS10 10 10 10 10 10 10 10 10 10 10 10 10
CIG200 200 200 200 170 170 170 110 95 110 100 110 --
CoverBKNBKNBKNBKNBKNBKNBKNBKNOVCBKNBKNBKNSCT
FltCatVFRVFRVFRVFRVFRVFRVFRVFRVFRVFRVFRVFRVFR
WX--------------------------
WDir033032000310270320201000170
WSpd0 3 4 3 0 7 6 4 10 4 0 0 3
WGst-- -- -- -- -- -- -- -- -- -- -- -- --
Raw hourly METARs
KSLC 211654Z 00000KT 10SM FEW110 SCT150 BKN200 17/03 A3017 RMK AO2 SLP188 T01670033
KSLC 211754Z 33003KT 10SM FEW080 SCT120 BKN200 19/03 A3014 RMK AO2 SLP176 T01890033 10189 20078 58012
KSLC 211854Z 32004KT 10SM FEW080 SCT120 SCT160 BKN200 19/04 A3013 RMK AO2 SLP171 VIRGA T01940039
KSLC 211954Z VRB03KT 10SM FEW090 SCT110 SCT160 BKN200 21/04 A3010 RMK AO2 SLP160 TCU DSNT SE AND W T02110039
KSLC 212054Z 00000KT 10SM FEW090 SCT110 BKN170 BKN210 21/03 A3008 RMK AO2 SLP153 ACC DSNT W T02110033 58018
KSLC 212154Z 31007KT 10SM FEW090 SCT110 BKN170 BKN210 22/04 A3008 RMK AO2 SLP151 T02170044
KSLC 212254Z 27006KT 10SM FEW090 SCT110 SCT140 BKN170 BKN210 19/05 A3009 RMK AO2 SLP160 TCU DSNT E ACSL DSNT N T01890050
KSLC 212354Z 32004KT 10SM FEW090 BKN110 BKN170 BKN210 18/04 A3008 RMK AO2 SLP156 T01830044 10228 20178 58002
KSLC 220054Z 02010KT 10SM BKN095 OVC200 17/05 A3007 RMK AO2 SLP157 T01720050
KSLC 220154Z 01004KT 10SM BKN110 BKN180 16/06 A3008 RMK AO2 SLP160 T01610056
KSLC 220254Z 00000KT 10SM BKN100 BKN180 15/06 A3007 RMK AO2 SLP159 T01500056 58000
KSLC 220354Z 00000KT 10SM BKN110 BKN180 14/06 A3008 RMK AO2 SLP158 T01390061
KSLC 220454Z 17003KT 10SM FEW085 SCT180 13/06 A3009 RMK AO2 SLP159 T01280056



Page loaded:  05:11 UTC  |   10:11 PM Pacific  |   11:11 PM Mountain  |   12:11 AM Central  |   01:11 AM Eastern

 

ADVISORIES

FORECASTS

FORECASTS

OBSERVATIONS

USER TOOLS

ABOUT US